• Join FlightAware (Why Join?)
  • Login
  • US Flag 
02:22AM EST


 

Airport Tracker/Info


-or-


 

Live Flight TrackerFlight Track Log ✈ MTN7303 ✈ 30-Apr-2013 ✈ KBWI - KEWR

Flight Track Log - Related Links

Times and Time Zones

All times are in EDT time to prevent confusion due to time zone crossing. See the MTN7303 flight status page for this flight to view local times or setup timezone preferences in your user account.

Time Position Orientation Groundspeed Altitude Reporting Facility
EDT Latitude Longitude Course Direction KTS MPH feet Rate Location/Type
11:14PM 39.1833 -76.6333 38° Northeast 102 117 1,100  Level Potomac TRACON
11:15PM 39.2000 -76.6167 38° Northeast 104 120 2,000 857 Climbing Potomac TRACON
11:16PM 39.2167 -76.5833 57° Northeast 104 120 2,900 850 Climbing Potomac TRACON
11:17PM 39.2500 -76.5500 38° Northeast 106 122 3,700 842 Climbing Potomac TRACON
11:18PM 39.2667 -76.5333 38° Northeast 108 124 4,500 650 Climbing Potomac TRACON
11:19PM 39.4160 -76.4340 38° Northeast  Level FlightAware Approximate
11:19PM 39.2833 -76.5000 57° Northeast 120 138 5,000  Level Potomac TRACON
11:20PM 39.3167 -76.4667 38° Northeast 152 175 5,000  Level Potomac TRACON
11:21PM 39.3500 -76.4167 49° Northeast 152 175 5,000  Level Potomac TRACON
11:22PM 39.3833 -76.3833 38° Northeast 150 173 5,000  Level Potomac TRACON
11:24PM 39.4333 -76.3167 46° Northeast 150 173 5,000  Level Potomac TRACON
11:25PM 39.4667 -76.2667 49° Northeast 149 171 5,000  Level Potomac TRACON
11:27PM 39.5333 -76.1833 44° Northeast 149 171 5,000  Level Philadelphia TRACON
11:28PM 39.5500 -76.1333 67° East 146 168 5,000  Level Philadelphia TRACON
11:29PM 39.5833 -76.1000 38° Northeast 143 165 5,000  Level Philadelphia TRACON
11:30PM 39.6000 -76.0500 67° East 143 165 5,000  Level Philadelphia TRACON
11:31PM 39.6333 -76.0000 49° Northeast 145 167 5,000  Level Philadelphia TRACON
11:32PM 39.6500 -75.9667 57° Northeast 144 166 5,000  Level Philadelphia TRACON
11:33PM 39.6833 -75.9333 38° Northeast 144 166 5,000  Level Philadelphia TRACON
11:34PM 39.7000 -75.8833 67° East 142 163 5,000  Level Philadelphia TRACON
11:35PM 39.7167 -75.8500 57° Northeast 143 165 5,000  Level Philadelphia TRACON
11:36PM 39.7500 -75.8000 49° Northeast 143 165 5,000  Level Philadelphia TRACON
11:37PM 39.7667 -75.7667 57° Northeast 143 165 5,000  Level Philadelphia TRACON
11:38PM 39.8000 -75.7167 49° Northeast 143 165 5,000  Level Philadelphia TRACON
11:39PM 39.8167 -75.6833 57° Northeast 142 163 5,000  Level Philadelphia TRACON
11:40PM 39.8333 -75.6333 67° East 143 165 5,000  Level Philadelphia TRACON
11:41PM 39.8667 -75.6000 38° Northeast 145 167 5,000  Level Philadelphia TRACON
11:42PM 39.8833 -75.5667 57° Northeast 145 167 5,000  Level Philadelphia TRACON
11:43PM 39.9167 -75.5167 49° Northeast 147 169 5,000  Level Philadelphia TRACON
11:44PM 39.9333 -75.4667 66° East 144 166 5,000  Level Philadelphia TRACON
11:45PM 39.9667 -75.4333 37° Northeast 143 165 5,000  Level Philadelphia TRACON
11:46PM 39.9833 -75.3833 66° East 144 166 5,000  Level Philadelphia TRACON
11:47PM 40.0000 -75.3500 57° Northeast 144 166 5,000  Level Philadelphia TRACON
11:48PM 40.0333 -75.3000 49° Northeast 143 165 5,000  Level Philadelphia TRACON
11:49PM 40.0500 -75.2667 57° Northeast 142 163 5,000  Level Philadelphia TRACON
11:51PM 40.0812 -75.2097 54° Northeast  Level FlightAware Approximate
11:55PM 40.2000 -75.0167 90° East 145 167 5,000  Level New York TRACON
11:56PM 40.2167 -74.9667 66° East 144 166 5,000  Level New York TRACON
11:57PM 40.2500 -74.9333 37° Northeast 144 166 5,000  Level New York TRACON
11:58PM 40.2469 -74.9057 54° Northeast  Level FlightAware Approximate
11:58PM 40.2667 -74.8833 66° East 147 169 5,000  Level New York TRACON
11:59PM 40.2763 -74.8650 45° Northeast  Level FlightAware Approximate
11:59PM 40.3000 -74.8500 37° Northeast 146 168 5,000  Level New York TRACON
12:00AM 40.3000 -74.8243 90° East  Level FlightAware Approximate
12:00AM 40.3167 -74.8000 66° East 147 169 5,000  Level New York TRACON
12:01AM 40.3500 -74.7667 37° Northeast 147 169 5,000  Level New York TRACON
12:02AM 40.3667 -74.7167 66° East 146 168 5,000  Level New York TRACON
12:03AM 40.4000 -74.6833 37° Northeast 145 167 5,000 -200 Level New York TRACON
12:04AM 40.4167 -74.6333 66° East 155 178 4,600 -550 Descending New York TRACON
12:05AM 40.4500 -74.5833 49° Northeast 162 186 3,900 -650 Descending New York TRACON
12:06AM 40.4667 -74.5333 66° East 159 183 3,300 -450 Descending New York TRACON
12:07AM 40.5000 -74.5000 37° Northeast 154 177 3,000 -150 Descending New York TRACON
12:08AM 40.5000 -74.4500 90° East 144 166 3,000  Level New York TRACON
12:09AM 40.5000 -74.3833 90° East 143 165 3,000  Level New York TRACON
12:10AM 40.5167 -74.3500 57° Northeast 148 170 3,000 -100 Level New York TRACON
12:11AM 40.5333 -74.3000 66° East 151 174 2,800 -200 Descending New York TRACON
12:12AM 40.5667 -74.2500 49° Northeast 151 174 2,600 -350 Descending New York TRACON
12:13AM 40.6000 -74.2167 37° Northeast 166 191 2,100 -700 Descending New York TRACON
12:14AM 40.6500 -74.2000 14° North 173 199 1,200 -900 Descending New York TRACON
12:16AM 40.6833 -74.1667 52° Northeast  Level FlightAware Approximate
12:23AM 40.6925 -74.1687 52° Northeast  Level Estimated
12:24AM 40.6925 -74.1687 52° Northeast  Level Estimated